createdAt,value
2018-11-14T00:00:27.686Z,5.92
2018-11-14T00:02:58.055Z,5.77
2018-11-14T00:05:27.339Z,6.23
2018-11-14T00:07:56.667Z,5.90
2018-11-14T00:10:25.999Z,6.05
2018-11-14T00:12:55.326Z,6.20
2018-11-14T00:15:25.956Z,5.20
2018-11-14T00:17:55.880Z,5.27
2018-11-14T00:20:25.700Z,4.70
2018-11-14T00:22:55.052Z,5.17
2018-11-14T00:25:24.362Z,4.43
2018-11-14T00:27:53.742Z,4.63
2018-11-14T00:30:24.842Z,4.30
2018-11-14T00:32:54.578Z,4.30
2018-11-14T00:35:23.661Z,5.20
2018-11-14T00:37:52.979Z,4.17
2018-11-14T00:40:22.354Z,4.10
2018-11-14T00:42:51.912Z,5.10
2018-11-14T00:45:22.293Z,4.60
2018-11-14T00:47:51.691Z,4.27
2018-11-14T00:50:21.384Z,4.73
2018-11-14T00:52:50.943Z,4.90
2018-11-14T00:55:21.669Z,6.03
2018-11-14T00:57:52.052Z,4.80
2018-11-14T01:00:27.195Z,5.20
2018-11-14T01:02:56.509Z,4.47
2018-11-14T01:05:25.996Z,4.73
2018-11-14T01:07:55.334Z,4.40
2018-11-14T01:10:26.577Z,4.07
2018-11-14T01:12:55.721Z,4.23
2018-11-14T01:15:24.783Z,4.50
2018-11-14T01:17:53.883Z,4.27
2018-11-14T01:20:23.903Z,4.30
2018-11-14T01:22:53.003Z,3.97
2018-11-14T01:25:22.107Z,4.35
2018-11-14T01:27:51.463Z,3.67
2018-11-14T01:30:22.189Z,3.43
2018-11-14T01:32:51.920Z,4.70
2018-11-14T01:35:21.703Z,5.07
2018-11-14T01:37:51.263Z,4.30
2018-11-14T01:40:22.586Z,4.43
2018-11-14T01:42:54.207Z,3.25
2018-11-14T01:45:24.316Z,3.70
2018-11-14T01:47:53.803Z,4.00
2018-11-14T01:50:22.908Z,3.80
2018-11-14T01:52:52.811Z,4.27
2018-11-14T01:55:22.192Z,4.10
2018-11-14T01:57:51.751Z,3.23
2018-11-14T02:00:22.259Z,3.67
2018-11-14T02:02:51.749Z,4.67
2018-11-14T02:05:21.097Z,3.33
2018-11-14T02:07:51.245Z,4.77
2018-11-14T02:10:21.420Z,3.70
2018-11-14T02:12:51.015Z,3.40
2018-11-14T02:15:21.692Z,4.12
2018-11-14T02:17:51.184Z,3.80
2018-11-14T02:20:20.740Z,4.07
2018-11-14T02:22:50.292Z,3.93
2018-11-14T02:25:19.845Z,4.60
2018-11-14T02:27:49.408Z,4.05
2018-11-14T02:30:20.243Z,3.27
2018-11-14T02:32:49.345Z,3.70
2018-11-14T02:35:18.709Z,3.30
2018-11-14T02:37:48.526Z,3.03
2018-11-14T02:40:19.042Z,3.50
2018-11-14T02:42:48.359Z,3.53
2018-11-14T02:45:18.392Z,3.43
2018-11-14T02:47:47.696Z,3.77
2018-11-14T02:50:17.749Z,3.47
2018-11-14T02:52:47.406Z,4.83
2018-11-14T02:55:17.253Z,3.70
2018-11-14T02:57:46.876Z,3.50
2018-11-14T03:00:18.617Z,4.23
2018-11-14T03:02:53.656Z,3.47
2018-11-14T03:05:23.267Z,3.00
2018-11-14T03:07:52.592Z,3.30
2018-11-14T03:10:22.458Z,3.70
2018-11-14T03:12:52.901Z,3.50
2018-11-14T03:15:23.201Z,3.47
2018-11-14T03:17:52.752Z,3.00
2018-11-14T03:20:22.556Z,3.70
2018-11-14T03:22:52.552Z,2.70
2018-11-14T03:25:21.651Z,2.70
2018-11-14T03:27:50.995Z,3.37
2018-11-14T03:30:20.324Z,3.00
2018-11-14T03:32:49.750Z,4.03
2018-11-14T03:35:19.057Z,2.60
2018-11-14T03:37:48.359Z,3.10
2018-11-14T03:40:17.738Z,2.80
2018-11-14T03:42:47.558Z,3.60
2018-11-14T03:45:16.669Z,2.47
2018-11-14T03:47:45.757Z,2.90
2018-11-14T03:50:14.913Z,3.13
2018-11-14T03:52:44.233Z,2.23
2018-11-14T03:55:13.577Z,2.37
2018-11-14T03:57:42.900Z,3.45
2018-11-14T04:00:14.625Z,3.90
2018-11-14T04:02:45.578Z,3.00
2018-11-14T04:05:15.075Z,2.80
2018-11-14T04:07:44.393Z,3.58
2018-11-14T04:10:14.593Z,2.87
2018-11-14T04:12:44.184Z,2.83
2018-11-14T04:15:14.431Z,3.20
2018-11-14T04:17:43.965Z,2.60
2018-11-14T04:20:14.678Z,3.00
2018-11-14T04:22:44.283Z,2.60
2018-11-14T04:25:17.595Z,2.93
2018-11-14T04:27:47.826Z,2.80
2018-11-14T04:30:22.196Z,2.80
2018-11-14T04:32:52.103Z,2.72
2018-11-14T04:35:21.851Z,2.93
2018-11-14T04:37:51.219Z,2.57
2018-11-14T04:40:22.184Z,3.07
2018-11-14T04:42:52.078Z,2.80
2018-11-14T04:45:23.827Z,2.67
2018-11-14T04:47:53.563Z,3.10
2018-11-14T04:50:26.268Z,3.20
2018-11-14T04:52:56.033Z,3.17
2018-11-14T04:55:26.569Z,2.60
2018-11-14T04:57:55.884Z,2.80
2018-11-14T05:00:25.904Z,2.60
2018-11-14T05:02:55.020Z,2.10
2018-11-14T05:05:24.813Z,2.62
2018-11-14T05:07:54.133Z,2.33
2018-11-14T05:10:24.960Z,2.77
2018-11-14T05:12:54.312Z,2.57
2018-11-14T05:15:25.266Z,2.57
2018-11-14T05:17:55.204Z,2.67
2018-11-14T05:20:24.499Z,2.33
2018-11-14T05:22:53.924Z,2.20
2018-11-14T05:25:23.261Z,2.20
2018-11-14T05:27:52.823Z,2.00
2018-11-14T05:30:23.038Z,2.40
2018-11-14T05:32:52.960Z,2.20
2018-11-14T05:35:22.063Z,2.67
2018-11-14T05:37:51.395Z,2.65
2018-11-14T05:40:22.105Z,2.27
2018-11-14T05:42:52.016Z,2.50
2018-11-14T05:45:24.503Z,2.10
2018-11-14T05:47:53.668Z,1.93
2018-11-14T05:50:23.278Z,2.27
2018-11-14T05:52:52.606Z,2.27
2018-11-14T05:55:21.915Z,2.30
2018-11-14T05:57:51.262Z,1.62
2018-11-14T06:00:27.863Z,2.60
2018-11-14T06:03:00.122Z,1.90
2018-11-14T06:05:30.958Z,2.30
2018-11-14T06:08:00.439Z,1.97
2018-11-14T06:10:29.781Z,2.10
2018-11-14T06:12:59.327Z,2.50
2018-11-14T06:15:29.028Z,2.40
2018-11-14T06:17:59.288Z,2.53
2018-11-14T06:20:29.650Z,1.97
2018-11-14T06:22:59.323Z,1.60
2018-11-14T06:25:35.605Z,1.90
2018-11-14T06:28:06.304Z,2.58
2018-11-14T06:30:36.360Z,1.97
2018-11-14T06:33:06.579Z,1.93
2018-11-14T06:35:36.276Z,1.77
2018-11-14T06:38:05.599Z,2.20
2018-11-14T06:40:35.156Z,2.40
2018-11-14T06:43:04.480Z,2.63
2018-11-14T06:45:34.505Z,2.40
2018-11-14T06:48:04.705Z,2.30
2018-11-14T06:50:34.276Z,2.40
2018-11-14T06:53:04.976Z,2.90
2018-11-14T06:55:34.620Z,2.70
2018-11-14T06:58:03.922Z,1.50
2018-11-14T07:00:34.417Z,1.97
2018-11-14T07:03:04.650Z,2.33
2018-11-14T07:05:33.855Z,2.98
2018-11-14T07:08:03.573Z,3.33
2018-11-14T07:10:35.179Z,3.60
2018-11-14T07:13:09.217Z,2.93
2018-11-14T07:15:39.701Z,4.10
2018-11-14T07:18:10.539Z,3.60
2018-11-14T07:20:42.338Z,2.80
2018-11-14T07:23:11.448Z,3.87
2018-11-14T07:25:40.700Z,4.73
2018-11-14T07:28:09.889Z,3.40
2018-11-14T07:30:39.249Z,11.47
2018-11-14T07:33:09.775Z,7.73
2018-11-14T07:35:38.906Z,6.30
2018-11-14T07:38:40.044Z,6.37
2018-11-14T07:41:12.124Z,5.07
2018-11-14T07:43:41.759Z,5.30
2018-11-14T07:46:11.920Z,5.67
2018-11-14T07:48:41.519Z,6.93
2018-11-14T07:51:11.253Z,9.20
2018-11-14T07:53:40.591Z,14.60
2018-11-14T07:56:09.933Z,14.00
2018-11-14T07:58:39.246Z,11.97
2018-11-14T08:01:08.813Z,12.33
2018-11-14T08:03:38.133Z,12.60
2018-11-14T08:06:07.715Z,12.37
2018-11-14T08:08:37.303Z,11.45
2018-11-14T08:11:08.161Z,12.03
2018-11-14T08:13:38.996Z,12.00
2018-11-14T08:16:08.526Z,12.77
2018-11-14T08:18:37.866Z,12.10
2018-11-14T08:21:07.941Z,10.27
2018-11-14T08:23:38.119Z,11.17
2018-11-14T08:26:07.486Z,10.17
2018-11-14T08:28:36.565Z,9.65
2018-11-14T08:31:06.215Z,10.27
2018-11-14T08:33:35.537Z,9.23
2018-11-14T08:36:05.121Z,9.87
2018-11-14T08:38:34.450Z,9.15
2018-11-14T08:41:03.781Z,9.00
2018-11-14T08:43:33.344Z,8.57
2018-11-14T08:46:02.901Z,8.70
2018-11-14T08:48:32.209Z,7.58
2018-11-14T08:51:01.350Z,6.30
2018-11-14T08:53:30.679Z,6.23
2018-11-14T08:55:59.991Z,6.17
2018-11-14T08:58:29.345Z,5.90
2018-11-14T09:00:59.082Z,11.70
2018-11-14T09:03:28.386Z,10.63
2018-11-14T09:05:57.767Z,9.00
2018-11-14T09:08:27.076Z,8.27
2018-11-14T09:10:56.205Z,8.10
2018-11-14T09:13:25.784Z,8.17
2018-11-14T09:15:55.460Z,9.33
2018-11-14T09:18:24.580Z,8.87
2018-11-14T09:20:53.945Z,7.43
2018-11-14T09:23:23.507Z,6.70
2018-11-14T09:25:52.822Z,7.20
2018-11-14T09:28:22.171Z,7.40
2018-11-14T09:30:51.768Z,9.33
2018-11-14T09:33:21.109Z,8.77
2018-11-14T09:35:50.507Z,10.57
2018-11-14T09:38:19.839Z,7.70
2018-11-14T09:40:49.057Z,7.70
2018-11-14T09:43:18.166Z,8.07
2018-11-14T09:45:47.504Z,7.72
2018-11-14T09:48:16.928Z,7.60
2018-11-14T09:50:46.224Z,8.07
2018-11-14T09:53:15.686Z,8.70
2018-11-14T09:55:44.925Z,8.70
2018-11-14T09:58:14.125Z,8.20
2018-11-14T10:00:43.551Z,7.43
2018-11-14T10:03:15.331Z,7.97
2018-11-14T10:05:44.658Z,8.63
2018-11-14T10:08:14.312Z,9.13
2018-11-14T10:10:44.262Z,8.60
2018-11-14T10:13:14.033Z,7.67
2018-11-14T10:15:43.447Z,7.30
2018-11-14T10:18:12.738Z,7.90
2018-11-14T10:20:42.060Z,7.83
2018-11-14T10:23:11.172Z,8.27
2018-11-14T10:25:40.514Z,8.60
2018-11-14T10:28:09.871Z,8.13
2018-11-14T10:30:39.236Z,7.80
2018-11-14T10:33:08.954Z,8.33
2018-11-14T10:35:38.452Z,8.50
2018-11-14T10:38:07.800Z,8.50
2018-11-14T10:40:37.147Z,8.33
2018-11-14T10:43:06.535Z,8.20
2018-11-14T10:45:36.364Z,8.95
2018-11-14T10:48:06.073Z,7.73
2018-11-14T10:50:35.407Z,8.83
2018-11-14T10:53:05.292Z,9.57
2018-11-14T10:55:34.863Z,9.27
2018-11-14T10:58:04.722Z,8.80
2018-11-14T11:00:39.382Z,8.20
2018-11-14T11:03:16.984Z,9.00
2018-11-14T11:05:52.021Z,8.07
2018-11-14T11:08:24.836Z,7.90
2018-11-14T11:10:59.680Z,8.53
2018-11-14T11:13:34.231Z,7.77
2018-11-14T11:16:09.037Z,8.53
2018-11-14T11:18:38.597Z,8.28
2018-11-14T11:21:08.159Z,8.70
2018-11-14T11:23:37.801Z,7.57
2018-11-14T11:26:07.335Z,7.97
2018-11-14T11:28:36.440Z,7.40
2018-11-14T11:31:05.541Z,7.63
2018-11-14T11:33:34.902Z,8.20
2018-11-14T11:36:04.731Z,8.60
2018-11-14T11:38:33.834Z,6.37
2018-11-14T11:41:03.172Z,6.57
2018-11-14T11:43:32.729Z,5.90
2018-11-14T11:46:02.588Z,5.97
2018-11-14T11:48:31.678Z,5.63
2018-11-14T11:51:01.121Z,5.33
2018-11-14T11:53:30.485Z,5.67
2018-11-14T11:55:59.834Z,5.50
2018-11-14T11:58:29.165Z,5.60
2018-11-14T12:00:58.245Z,5.57
2018-11-14T12:03:27.608Z,5.50
2018-11-14T12:05:57.192Z,5.27
2018-11-14T12:08:26.697Z,5.00
2018-11-14T12:10:56.379Z,5.10
2018-11-14T12:13:25.992Z,4.60
2018-11-14T12:15:55.293Z,4.83
2018-11-14T12:18:24.611Z,4.10
2018-11-14T12:20:53.720Z,4.33
2018-11-14T12:23:22.830Z,5.07
2018-11-14T12:25:52.587Z,5.27
2018-11-14T12:28:21.687Z,4.13
2018-11-14T12:30:51.169Z,4.80
2018-11-14T12:33:20.345Z,4.33
2018-11-14T12:35:50.246Z,4.73
2018-11-14T12:38:20.365Z,3.67
2018-11-14T12:40:49.651Z,3.50
2018-11-14T12:43:19.000Z,3.33
2018-11-14T12:45:48.336Z,3.60
2018-11-14T12:48:17.434Z,4.33
2018-11-14T12:50:46.776Z,4.20
2018-11-14T12:53:16.107Z,4.27
2018-11-14T12:55:45.445Z,3.87
2018-11-14T12:58:14.748Z,3.93
2018-11-14T13:00:44.111Z,4.63
2018-11-14T13:03:13.667Z,6.08
2018-11-14T13:05:42.988Z,6.37
2018-11-14T13:08:12.104Z,6.00
2018-11-14T13:10:41.205Z,5.90
2018-11-14T13:13:10.536Z,5.97
2018-11-14T13:15:40.088Z,5.40
2018-11-14T13:18:09.404Z,5.37
2018-11-14T13:20:38.487Z,5.10
2018-11-14T13:23:08.276Z,5.10
2018-11-14T13:25:37.593Z,4.50
2018-11-14T13:28:06.956Z,4.83
2018-11-14T13:30:36.265Z,4.30
2018-11-14T13:33:05.921Z,4.83
2018-11-14T13:35:35.268Z,3.80
2018-11-14T13:38:05.181Z,3.87
2018-11-14T13:40:34.484Z,5.10
2018-11-14T13:43:03.618Z,4.90
2018-11-14T13:45:32.977Z,4.93
2018-11-14T13:48:02.068Z,4.43
2018-11-14T13:50:31.715Z,5.07
2018-11-14T13:53:00.730Z,4.83
2018-11-14T13:55:30.071Z,4.97
2018-11-14T13:57:59.611Z,4.53
2018-11-14T14:00:29.183Z,4.80
2018-11-14T14:02:58.484Z,4.75
2018-11-14T14:05:28.309Z,4.50
2018-11-14T14:07:57.667Z,3.90
2018-11-14T14:10:27.279Z,3.97
2018-11-14T14:12:56.619Z,4.00
2018-11-14T14:15:26.970Z,3.93
2018-11-14T14:17:56.067Z,4.10
2018-11-14T14:20:25.592Z,3.40
2018-11-14T14:22:54.707Z,3.80
2018-11-14T14:25:24.210Z,4.30
2018-11-14T14:27:53.308Z,4.30
2018-11-14T14:30:23.107Z,4.33
2018-11-14T14:32:52.429Z,4.72
2018-11-14T14:35:23.247Z,4.97
2018-11-14T14:37:52.380Z,7.60
2018-11-14T14:40:22.443Z,7.03
2018-11-14T14:42:51.595Z,7.83
2018-11-14T14:45:22.463Z,8.07
2018-11-14T14:47:51.783Z,8.20
2018-11-14T14:50:21.381Z,8.10
2018-11-14T14:52:50.686Z,8.53
2018-11-14T14:55:23.323Z,9.10
2018-11-14T14:57:52.464Z,9.17
2018-11-14T15:00:25.356Z,9.10
2018-11-14T15:02:54.671Z,8.28
2018-11-14T15:05:23.768Z,9.80
2018-11-14T15:07:52.898Z,10.03
2018-11-14T15:10:23.458Z,9.27
2018-11-14T15:12:53.683Z,8.50
2018-11-14T15:15:23.040Z,9.13
2018-11-14T15:17:52.816Z,9.97
2018-11-14T15:20:23.547Z,9.80
2018-11-14T15:22:52.989Z,9.87
2018-11-14T15:25:23.389Z,8.35
2018-11-14T15:27:53.301Z,8.13
2018-11-14T15:30:24.520Z,7.10
2018-11-14T15:32:53.647Z,8.23
2018-11-14T15:35:22.931Z,7.50
2018-11-14T15:37:52.136Z,6.80
2018-11-14T15:40:23.359Z,7.87
2018-11-14T15:42:53.009Z,7.13
2018-11-14T15:45:23.813Z,7.20
2018-11-14T15:47:53.183Z,7.43
2018-11-14T15:50:23.447Z,7.10
2018-11-14T15:52:54.151Z,6.55
2018-11-14T15:55:23.621Z,5.77
2018-11-14T15:57:53.014Z,7.12
2018-11-14T16:00:23.951Z,5.70
2018-11-14T16:02:53.740Z,6.50
2018-11-14T16:05:24.184Z,5.85
2018-11-14T16:07:54.354Z,5.90
2018-11-14T16:10:24.320Z,5.00
2018-11-14T16:12:53.676Z,5.33
2018-11-14T16:15:25.551Z,5.67
2018-11-14T16:17:54.908Z,5.90
2018-11-14T16:20:25.193Z,6.73
2018-11-14T16:22:54.742Z,5.80
2018-11-14T16:25:25.207Z,4.63
2018-11-14T16:27:56.036Z,5.22
2018-11-14T16:30:29.456Z,5.37
2018-11-14T16:33:00.485Z,4.78
2018-11-14T16:35:29.804Z,5.43
2018-11-14T16:37:58.912Z,4.60
2018-11-14T16:40:30.356Z,5.80
2018-11-14T16:43:01.060Z,5.37
2018-11-14T16:45:30.374Z,5.07
2018-11-14T16:47:59.771Z,5.43
2018-11-14T16:50:29.335Z,4.63
2018-11-14T16:52:58.650Z,5.17
2018-11-14T16:55:28.048Z,5.53
2018-11-14T16:57:57.919Z,5.00
2018-11-14T17:00:29.562Z,5.30
2018-11-14T17:02:59.182Z,5.27
2018-11-14T17:05:29.845Z,6.17
2018-11-14T17:07:59.158Z,5.60
2018-11-14T17:10:28.524Z,5.50
2018-11-14T17:12:59.638Z,5.00
2018-11-14T17:15:28.820Z,6.50
2018-11-14T17:17:57.934Z,4.83
2018-11-14T17:20:27.263Z,4.50
2018-11-14T17:22:56.764Z,5.60
2018-11-14T17:25:25.895Z,6.37
2018-11-14T17:27:55.276Z,5.40
2018-11-14T17:30:25.880Z,5.37
2018-11-14T17:32:55.503Z,4.87
2018-11-14T17:35:24.616Z,5.70
2018-11-14T17:37:53.991Z,4.93
2018-11-14T17:40:27.680Z,5.17
2018-11-14T17:42:57.074Z,5.57
2018-11-14T17:45:28.625Z,4.93
2018-11-14T17:47:58.901Z,5.77
2018-11-14T17:50:29.287Z,6.47
2018-11-14T17:52:59.469Z,5.17
2018-11-14T17:55:29.114Z,5.00
2018-11-14T17:57:58.630Z,5.00
2018-11-14T18:00:28.971Z,5.57
2018-11-14T18:02:58.408Z,5.43
2018-11-14T18:05:29.495Z,4.53
2018-11-14T18:07:58.793Z,5.93
2018-11-14T18:10:29.063Z,5.03
2018-11-14T18:12:59.126Z,5.15
2018-11-14T18:15:28.476Z,4.47
2018-11-14T18:17:59.200Z,5.13
2018-11-14T18:20:29.580Z,5.57
2018-11-14T18:22:59.192Z,5.12
2018-11-14T18:25:28.767Z,5.72
2018-11-14T18:27:59.050Z,4.90
2018-11-14T18:30:29.799Z,5.50
2018-11-14T18:33:00.203Z,5.70
2018-11-14T18:35:29.669Z,5.50
2018-11-14T18:37:59.727Z,5.10
2018-11-14T18:40:31.172Z,4.13
2018-11-14T18:43:00.274Z,5.27
2018-11-14T18:45:31.249Z,4.97
2018-11-14T18:48:01.553Z,5.10
2018-11-14T18:50:31.581Z,4.57
2018-11-14T18:53:00.670Z,5.70
2018-11-14T18:55:31.491Z,5.00
2018-11-14T18:58:01.845Z,5.00
2018-11-14T19:00:32.544Z,4.57
2018-11-14T19:03:01.848Z,4.50
2018-11-14T19:05:31.201Z,4.90
2018-11-14T19:08:00.722Z,4.10
2018-11-14T19:10:31.715Z,5.13
2018-11-14T19:13:00.811Z,4.70
2018-11-14T19:15:34.797Z,4.90
2018-11-14T19:18:04.422Z,4.97
2018-11-14T19:20:34.917Z,4.80
2018-11-14T19:23:06.068Z,3.90
2018-11-14T19:25:36.727Z,4.47
2018-11-14T19:28:05.845Z,4.90
2018-11-14T19:30:36.653Z,5.30
2018-11-14T19:33:05.916Z,4.40
2018-11-14T19:35:35.034Z,4.60
2018-11-14T19:38:04.608Z,4.20
2018-11-14T19:40:35.279Z,4.70
2018-11-14T19:43:05.683Z,4.43
2018-11-14T19:45:36.527Z,4.10
2018-11-14T19:48:05.939Z,4.20
2018-11-14T19:50:35.404Z,4.93
2018-11-14T19:53:05.240Z,3.87
2018-11-14T19:55:35.462Z,4.10
2018-11-14T19:58:05.292Z,4.03
2018-11-14T20:00:37.672Z,4.27
2018-11-14T20:03:06.949Z,4.40
2018-11-14T20:05:36.290Z,4.37
2018-11-14T20:08:06.316Z,4.50
2018-11-14T20:10:35.724Z,3.70
2018-11-14T20:13:05.079Z,3.67
2018-11-14T20:15:36.112Z,4.73
2018-11-14T20:18:05.853Z,4.43
2018-11-14T20:20:36.590Z,4.10
2018-11-14T20:23:05.927Z,4.00
2018-11-14T20:25:35.508Z,3.70
2018-11-14T20:28:04.851Z,4.17
2018-11-14T20:30:35.494Z,3.97
2018-11-14T20:33:06.731Z,3.93
2018-11-14T20:35:36.076Z,3.90
2018-11-14T20:38:05.391Z,4.23
2018-11-14T20:40:37.847Z,4.33
2018-11-14T20:43:07.662Z,3.70
2018-11-14T20:45:37.191Z,4.67
2018-11-14T20:48:06.570Z,4.23
2018-11-14T20:50:36.121Z,3.77
2018-11-14T20:53:05.512Z,4.80
2018-11-14T20:55:35.319Z,5.00
2018-11-14T20:58:05.220Z,6.70
2018-11-14T21:00:36.147Z,6.60
2018-11-14T21:03:06.712Z,8.10
2018-11-14T21:05:36.062Z,9.10
2018-11-14T21:08:06.139Z,9.50
2018-11-14T21:10:36.114Z,10.30
2018-11-14T21:13:05.490Z,11.03
2018-11-14T21:15:36.367Z,10.38
2018-11-14T21:18:06.106Z,10.60
2018-11-14T21:20:35.677Z,10.77
2018-11-14T21:23:05.128Z,11.43
2018-11-14T21:25:34.443Z,10.63
2018-11-14T21:28:03.788Z,10.23
2018-11-14T21:30:32.921Z,9.70
2018-11-14T21:33:02.041Z,9.90
2018-11-14T21:35:32.913Z,10.05
2018-11-14T21:38:03.634Z,11.20
2018-11-14T21:40:32.943Z,11.63
2018-11-14T21:43:02.055Z,9.53
2018-11-14T21:45:31.822Z,10.27
2018-11-14T21:48:06.836Z,10.17
2018-11-14T21:50:36.155Z,9.73
2018-11-14T21:53:05.303Z,10.53
2018-11-14T21:55:34.614Z,9.53
2018-11-14T21:58:04.263Z,9.58
2018-11-14T22:00:35.132Z,11.03
2018-11-14T22:03:05.543Z,9.40
2018-11-14T22:05:35.913Z,9.13
2018-11-14T22:08:05.409Z,10.77
2018-11-14T22:10:35.459Z,8.33
2018-11-14T22:13:04.863Z,9.50
2018-11-14T22:15:34.190Z,8.30
2018-11-14T22:18:03.612Z,9.33
2018-11-14T22:20:33.146Z,8.73
2018-11-14T22:23:02.511Z,8.90
2018-11-14T22:25:31.852Z,8.77
2018-11-14T22:28:01.496Z,8.15
2018-11-14T22:30:33.382Z,8.57
2018-11-14T22:33:02.708Z,9.20
2018-11-14T22:35:32.893Z,8.40
2018-11-14T22:38:02.443Z,9.47
2018-11-14T22:40:32.719Z,8.73
2018-11-14T22:43:02.304Z,9.10
2018-11-14T22:45:32.674Z,7.23
2018-11-14T22:48:01.806Z,7.72
2018-11-14T22:50:31.180Z,7.73
2018-11-14T22:53:00.759Z,7.23
2018-11-14T22:55:30.096Z,7.40
2018-11-14T22:57:59.229Z,7.90
2018-11-14T23:00:32.792Z,7.53
2018-11-14T23:03:02.999Z,8.00
2018-11-14T23:05:32.090Z,7.57
2018-11-14T23:08:01.794Z,7.75
2018-11-14T23:10:31.360Z,6.65
2018-11-14T23:13:01.617Z,7.03
2018-11-14T23:15:30.798Z,7.37
2018-11-14T23:17:59.836Z,8.50
2018-11-14T23:20:29.187Z,7.00
2018-11-14T23:22:58.589Z,7.23
2018-11-14T23:25:27.980Z,7.30
2018-11-14T23:27:57.336Z,7.47
2018-11-14T23:30:27.640Z,7.67
2018-11-14T23:32:57.860Z,7.37
2018-11-14T23:35:29.632Z,8.20
2018-11-14T23:38:00.458Z,7.62
2018-11-14T23:40:30.095Z,7.80
2018-11-14T23:42:59.673Z,8.23
2018-11-14T23:45:29.737Z,6.80
2018-11-14T23:47:59.318Z,7.80
2018-11-14T23:50:30.348Z,7.23
2018-11-14T23:53:00.868Z,6.13
2018-11-14T23:55:31.109Z,7.20
2018-11-14T23:58:00.825Z,7.47
